Time;durP1;ratioP1;P1;durP2;ratioP2;P2;SDS_P1;SDS_P2;PMS_P1;PMS_P2;Temp;Humidity;BMP_temperature;BMP_pressure;BME280_temperature;BME280_humidity;BME280_pressure;Samples;Min_cycle;Max_cycle;Signal;HPM_P1;HPM_P2
2022/05/20 03:47:23;;;;;;;3.67;3.10;;;;;;;11.25;70.73;101194.44;5425184;27;20143;-83
2022/05/20 03:50:26;;;;;;;3.90;2.97;;;;;;;11.32;70.27;101200.91;5372185;33;33628;-84
2022/05/20 03:53:29;;;;;;;6.90;3.50;;;;;;;11.35;70.16;101189.78;5363106;33;33923;-85
2022/05/20 03:56:32;;;;;;;4.85;3.50;;;;;;;11.40;70.86;101192.81;5349366;33;33241;-85
2022/05/20 03:59:36;;;;;;;5.47;3.30;;;;;;;11.49;71.45;101189.13;5369973;33;33492;-88
2022/05/20 04:02:39;;;;;;;5.47;3.78;;;;;;;11.55;69.58;101184.94;5372778;33;34322;-88
2022/05/20 04:05:42;;;;;;;5.80;3.42;;;;;;;11.61;68.93;101186.97;5372346;33;35653;-89
2022/05/20 04:08:44;;;;;;;7.78;4.03;;;;;;;11.72;68.70;101178.56;5374030;33;32516;-84
2022/05/20 04:11:52;;;;;;;5.37;3.53;;;;;;;11.80;69.17;101191.25;5347973;33;31735;-83
2022/05/20 04:14:56;;;;;;;7.28;3.67;;;;;;;11.94;67.88;101190.63;5361009;33;33583;-83
2022/05/20 04:17:59;;;;;;;4.47;3.50;;;;;;;12.05;67.13;101194.00;5359552;33;33312;-84
2022/05/20 04:21:02;;;;;;;6.25;3.78;;;;;;;12.17;67.13;101196.22;5361074;33;33657;-84
2022/05/20 04:24:05;;;;;;;6.40;3.58;;;;;;;12.28;66.42;101184.22;5361140;33;33033;-83
2022/05/20 04:27:08;;;;;;;5.95;3.50;;;;;;;12.35;66.35;101171.75;5362634;33;33413;-84
2022/05/20 04:30:12;;;;;;;3.80;3.30;;;;;;;12.44;66.50;101173.41;5362847;33;33591;-84
2022/05/20 04:33:15;;;;;;;3.62;3.33;;;;;;;12.59;65.40;101183.53;5361420;33;34533;-84
2022/05/20 04:36:19;;;;;;;5.25;3.33;;;;;;;12.83;63.59;101193.44;5361247;33;33803;-84
2022/05/20 04:39:21;;;;;;;6.03;3.78;;;;;;;13.14;64.28;101185.41;5359738;33;34278;-84
2022/05/20 04:49:09;;;;;;;5.35;3.40;;;;;;;13.75;59.21;101202.72;5361511;33;34569;-84
2022/05/20 04:52:12;;;;;;;7.50;3.20;;;;;;;13.84;58.44;101198.09;5361619;33;33721;-85
2022/05/20 04:55:15;;;;;;;5.35;3.40;;;;;;;13.92;57.21;101184.50;5362138;33;33075;-84
2022/05/20 04:58:18;;;;;;;4.20;3.30;;;;;;;13.97;57.14;101187.50;5361202;33;34151;-84
2022/05/20 05:01:22;;;;;;;6.87;3.25;;;;;;;14.04;56.60;101166.00;5348285;33;31735;-84
2022/05/20 05:04:24;;;;;;;5.07;3.87;;;;;;;14.15;55.60;101178.25;5348808;33;31975;-84
2022/05/20 05:07:27;;;;;;;4.47;3.50;;;;;;;14.26;56.40;101191.34;5361973;33;33549;-84
2022/05/20 05:10:31;;;;;;;4.53;3.10;;;;;;;14.43;54.89;101186.66;5362224;33;33955;-84
2022/05/20 05:13:34;;;;;;;4.87;3.40;;;;;;;14.59;55.31;101199.22;5363484;33;33498;-84
2022/05/20 05:16:38;;;;;;;5.30;3.40;;;;;;;14.76;56.11;101195.31;5354799;33;32306;-84
2022/05/20 05:19:42;;;;;;;5.00;3.20;;;;;;;14.86;55.18;101203.16;5363911;33;33242;-84
2022/05/20 05:22:44;;;;;;;4.93;3.40;;;;;;;15.04;53.64;101203.66;5364753;33;33462;-84
2022/05/20 05:25:48;;;;;;;6.22;3.58;;;;;;;15.30;51.56;101203.19;5352630;33;32016;-84
2022/05/20 05:28:51;;;;;;;3.87;3.30;;;;;;;15.39;52.21;101204.78;5348577;33;32010;-84
2022/05/20 05:31:58;;;;;;;5.78;3.80;;;;;;;15.46;51.36;101194.00;5361389;33;33588;-84
2022/05/20 05:35:01;;;;;;;6.07;3.35;;;;;;;15.43;51.32;101186.22;5348883;33;32889;-84
2022/05/20 05:38:04;;;;;;;4.60;3.25;;;;;;;15.56;51.08;101180.09;5340094;33;31688;-84
2022/05/20 05:41:07;;;;;;;6.05;3.60;;;;;;;15.75;51.15;101182.25;5325688;33;33593;-84
2022/05/20 05:44:11;;;;;;;5.03;3.53;;;;;;;15.98;52.03;101182.06;5319877;33;31780;-88
2022/05/20 05:47:15;;;;;;;4.72;3.22;;;;;;;16.32;49.34;101166.91;5342865;33;33627;-89
2022/05/20 05:50:18;;;;;;;5.97;3.53;;;;;;;16.43;47.47;101177.25;5333801;33;32097;-89
2022/05/20 05:53:23;;;;;;;7.05;3.28;;;;;;;16.58;47.93;101173.59;5319066;33;32164;-86
2022/05/20 05:56:26;;;;;;;5.78;3.10;;;;;;;16.59;47.08;101173.41;5333209;33;33433;-85
2022/05/20 05:59:28;;;;;;;4.22;3.05;;;;;;;16.66;47.80;101168.00;5324449;33;31485;-84
2022/05/20 06:02:31;;;;;;;4.47;2.75;;;;;;;16.80;48.89;101161.66;5341924;33;32227;-84
2022/05/20 06:05:35;;;;;;;5.53;2.58;;;;;;;17.02;47.27;101173.28;5341254;33;34818;-85
2022/05/20 06:08:38;;;;;;;6.37;2.83;;;;;;;17.08;45.78;101177.09;5331276;33;33060;-84
2022/05/20 06:11:41;;;;;;;4.12;2.70;;;;;;;17.15;46.00;101175.25;5329128;33;33033;-85
2022/05/20 06:14:43;;;;;;;2.53;2.33;;;;;;;17.30;45.00;101181.38;5317107;33;32630;-84
2022/05/20 06:17:46;;;;;;;5.35;2.55;;;;;;;17.56;44.96;101174.38;5315081;33;33074;-84
2022/05/20 06:20:49;;;;;;;4.05;2.40;;;;;;;17.78;44.03;101180.53;5322398;33;33337;-84
2022/05/20 06:23:52;;;;;;;4.53;2.55;;;;;;;18.09;42.81;101171.81;5337934;33;33257;-84
2022/05/20 06:26:55;;;;;;;3.28;1.75;;;;;;;18.19;42.54;101174.09;5331038;33;32037;-84
2022/05/20 06:29:58;;;;;;;2.20;2.00;;;;;;;18.63;42.40;101168.00;5321178;33;32394;-84
2022/05/20 06:40:55;;;;;;;3.00;2.22;;;;;;;19.84;40.26;101142.84;5310202;33;34855;-84
2022/05/20 06:43:58;;;;;;;4.45;2.15;;;;;;;20.06;39.19;101145.19;5314530;33;35026;-84
2022/05/20 06:47:01;;;;;;;1.98;1.80;;;;;;;20.21;38.70;101144.88;5303484;33;32945;-82
2022/05/20 06:50:05;;;;;;;3.53;1.77;;;;;;;20.25;38.42;101138.75;5298536;33;33773;-83
2022/05/20 06:53:10;;;;;;;1.98;1.17;;;;;;;19.96;38.71;101142.97;5308794;33;33290;-84
2022/05/20 06:56:14;;;;;;;2.22;1.58;;;;;;;19.86;38.46;101145.34;5308454;33;33736;-84
2022/05/20 06:59:17;;;;;;;3.60;1.80;;;;;;;19.85;37.70;101152.69;5306798;33;34113;-84
2022/05/20 07:02:20;;;;;;;1.85;1.73;;;;;;;19.70;36.79;101147.53;5297916;33;31760;-83
2022/05/20 07:05:31;;;;;;;3.37;1.52;;;;;;;19.53;37.07;101156.44;5298372;33;31545;-83
2022/05/20 07:08:35;;;;;;;2.58;1.58;;;;;;;19.43;36.91;101151.44;5335715;27;34699;-84
2022/05/20 07:11:42;;;;;;;1.70;1.60;;;;;;;19.29;37.11;101155.28;5327535;33;34069;-84
2022/05/20 07:14:45;;;;;;;2.10;1.77;;;;;;;19.25;37.44;101152.16;5329017;33;31889;-85
2022/05/20 07:17:48;;;;;;;4.07;1.67;;;;;;;19.23;37.62;101157.81;5323673;33;32101;-85
2022/05/20 07:20:51;;;;;;;2.58;1.73;;;;;;;19.15;37.94;101155.31;5324149;33;32204;-85
2022/05/20 07:23:57;;;;;;;5.45;1.62;;;;;;;19.14;38.92;101161.84;5329179;33;33856;-89
2022/05/20 07:26:59;;;;;;;5.07;1.65;;;;;;;19.32;38.60;101163.88;5324219;33;32495;-90
2022/05/20 07:30:03;;;;;;;1.65;1.40;;;;;;;19.84;37.52;101167.44;5325467;33;31708;-89
2022/05/20 07:33:06;;;;;;;3.55;1.67;;;;;;;20.19;37.28;101161.50;5324243;33;32078;-89
2022/05/20 07:36:09;;;;;;;1.60;1.50;;;;;;;20.41;36.24;101161.12;5324696;33;34455;-85
2022/05/20 07:39:12;;;;;;;2.28;1.17;;;;;;;20.50;36.34;101160.59;5324573;33;32132;-85
2022/05/20 07:42:22;;;;;;;2.42;1.30;;;;;;;20.61;36.12;101162.63;5325582;33;33946;-85
2022/05/20 07:45:25;;;;;;;2.70;1.45;;;;;;;20.90;36.70;101164.88;5324614;33;33281;-85
2022/05/20 07:48:29;;;;;;;3.70;1.70;;;;;;;21.06;36.39;101173.34;5323803;33;34782;-86
2022/05/20 07:51:33;;;;;;;1.98;1.80;;;;;;;21.20;36.00;101167.69;5308715;33;32983;-86
2022/05/20 07:54:40;;;;;;;6.35;2.15;;;;;;;21.48;35.57;101162.53;5324760;33;33643;-85
2022/05/20 07:57:43;;;;;;;3.00;1.87;;;;;;;21.48;35.55;101159.78;5324996;33;31710;-85
2022/05/20 08:00:46;;;;;;;2.00;1.80;;;;;;;21.71;35.03;101155.50;5323619;33;32200;-86
2022/05/20 08:07:18;;;;;;;3.10;1.83;;;;;;;21.66;34.92;101158.09;5342499;33;32953;-85
2022/05/20 08:10:22;;;;;;;4.82;1.85;;;;;;;21.54;36.12;101151.72;5322151;33;32599;-86
2022/05/20 08:13:26;;;;;;;3.25;1.75;;;;;;;21.45;36.08;101143.81;5332166;33;33716;-85
2022/05/20 08:16:29;;;;;;;4.03;1.65;;;;;;;21.71;36.10;101139.88;5331852;33;32243;-85
2022/05/20 08:19:32;;;;;;;1.75;1.62;;;;;;;21.84;35.86;101136.09;5327923;33;31966;-85
2022/05/20 08:22:36;;;;;;;1.87;1.45;;;;;;;21.84;35.69;101146.22;5314041;33;31976;-85
2022/05/20 08:25:39;;;;;;;1.75;1.55;;;;;;;21.95;35.39;101138.03;5336442;33;34015;-85
2022/05/20 08:28:42;;;;;;;2.45;1.80;;;;;;;22.29;35.08;101143.84;5330570;33;32331;-85
2022/05/20 08:31:45;;;;;;;2.80;1.75;;;;;;;22.17;35.22;101148.47;5319568;33;32848;-85
2022/05/20 08:34:48;;;;;;;1.25;1.15;;;;;;;22.32;35.44;101140.62;5326586;33;33238;-85
2022/05/20 08:37:51;;;;;;;1.62;1.52;;;;;;;22.67;34.61;101133.47;5312744;33;32565;-85
2022/05/20 08:40:54;;;;;;;2.35;1.75;;;;;;;22.80;34.45;101122.25;5325565;33;34231;-85
2022/05/20 08:43:58;;;;;;;1.98;1.73;;;;;;;23.02;33.75;101114.22;5312420;33;34964;-85
2022/05/20 08:47:39;;;;;;;2.65;1.70;;;;;;;22.99;34.04;101112.81;5314290;33;31686;-85
2022/05/20 08:50:51;;;;;;;2.42;1.33;;;;;;;23.24;33.44;101109.75;5314632;33;32054;-90
2022/05/20 08:53:54;;;;;;;2.15;1.40;;;;;;;23.53;33.40;101105.09;5319183;33;32221;-86
2022/05/20 08:56:58;;;;;;;1.73;1.48;;;;;;;23.82;34.00;101101.53;5323579;33;33098;-86
2022/05/20 09:00:04;;;;;;;5.85;2.37;;;;;;;23.91;32.10;101089.84;5344565;33;34281;-86
2022/05/20 09:03:08;;;;;;;1.48;1.35;;;;;;;23.81;32.29;101097.09;5329461;33;33938;-85
2022/05/20 09:06:15;;;;;;;2.17;1.70;;;;;;;23.84;32.76;101082.84;5311351;33;32142;-86
2022/05/20 09:09:18;;;;;;;2.45;1.25;;;;;;;24.14;32.04;101077.84;5300930;33;32301;-85
2022/05/20 09:12:26;;;;;;;1.40;1.30;;;;;;;24.37;32.06;101073.25;5315593;33;33650;-84
2022/05/20 09:15:44;;;;;;;1.90;1.40;;;;;;;24.49;31.87;101071.25;5315717;33;31909;-85
2022/05/20 09:19:08;;;;;;;2.35;1.62;;;;;;;24.56;31.11;101069.12;5315689;33;32534;-85
2022/05/20 09:22:14;;;;;;;3.20;1.80;;;;;;;24.56;31.49;101062.81;5316422;33;31705;-85
2022/05/20 09:25:26;;;;;;;1.60;1.50;;;;;;;24.44;31.51;101061.00;5324775;33;33837;-85
2022/05/20 09:28:39;;;;;;;3.08;1.55;;;;;;;24.58;31.85;101055.13;5312174;33;32005;-85
2022/05/20 09:31:50;;;;;;;3.05;1.70;;;;;;;24.88;31.10;101052.75;5311825;33;33599;-85
2022/05/20 09:35:01;;;;;;;2.10;1.30;;;;;;;25.15;31.50;101052.00;5310184;33;32320;-85
2022/05/20 09:38:26;;;;;;;1.35;1.25;;;;;;;25.27;30.94;101049.94;5319592;33;33171;-85
2022/05/20 09:41:29;;;;;;;1.75;1.50;;;;;;;25.30;31.79;101045.81;5320243;33;33458;-89
2022/05/20 09:44:38;;;;;;;5.68;1.60;;;;;;;25.28;30.17;101035.06;5310863;33;32853;-89
2022/05/20 09:47:53;;;;;;;2.05;1.67;;;;;;;25.41;30.70;101042.06;5310136;33;32014;-83
2022/05/20 09:51:08;;;;;;;1.62;1.52;;;;;;;25.43;29.86;101037.13;5322127;33;32925;-84
2022/05/20 09:54:19;;;;;;;4.35;1.92;;;;;;;25.53;30.10;101042.72;5323347;33;34095;-85
2022/05/20 09:57:28;;;;;;;2.17;1.37;;;;;;;25.48;29.58;101039.94;5312290;33;31451;-84
2022/05/20 10:00:32;;;;;;;;;;;;;;;25.58;29.52;101035.62;5326735;33;33521;-83
2022/05/20 10:03:39;;;;;;;2.75;1.58;;;;;;;25.68;30.62;101032.94;5311835;33;35235;-85
2022/05/20 10:06:51;;;;;;;1.65;1.40;;;;;;;25.99;30.36;101037.66;5323500;33;33445;-84
2022/05/20 10:10:02;;;;;;;2.08;1.60;;;;;;;26.15;29.10;101029.47;5317528;33;32415;-84
2022/05/20 10:13:10;;;;;;;1.60;1.50;;;;;;;26.31;30.76;101030.41;5309753;33;32696;-85
2022/05/20 10:17:00;;;;;;;2.20;2.00;;;;;;;26.86;29.49;101021.59;5310591;33;32199;-85
2022/05/20 10:20:12;;;;;;;2.00;1.73;;;;;;;26.92;27.91;101022.44;5247685;33;32101;-84
2022/05/20 10:23:29;;;;;;;2.10;1.70;;;;;;;27.24;28.70;101025.03;5310677;33;33571;-85
2022/05/20 10:26:34;;;;;;;1.42;1.23;;;;;;;27.61;28.35;101009.31;5324573;33;32613;-85
2022/05/20 10:33:38;;;;;;;2.53;1.58;;;;;;;28.12;27.74;101012.91;5331798;33;34861;-86
2022/05/20 10:37:03;;;;;;;1.83;1.37;;;;;;;28.68;27.39;101004.44;5300380;33;31860;-85
2022/05/20 10:40:15;;;;;;;2.05;1.50;;;;;;;29.04;26.89;101004.28;5304697;33;32457;-85
2022/05/20 10:43:25;;;;;;;1.42;1.33;;;;;;;29.16;26.57;101006.69;5303358;33;32654;-85
2022/05/20 10:50:15;;;;;;;2.72;1.52;;;;;;;29.69;26.37;100984.72;5315931;33;33367;-85
2022/05/20 10:53:20;;;;;;;1.50;1.33;;;;;;;30.77;25.70;100991.84;5316892;33;33273;-89
2022/05/20 10:56:36;;;;;;;2.78;1.65;;;;;;;30.82;23.27;100981.53;5317609;33;32713;-87
2022/05/20 10:59:57;;;;;;;2.90;1.80;;;;;;;31.06;24.10;100984.22;5303953;33;33781;-85
2022/05/20 11:03:31;;;;;;;3.12;1.50;;;;;;;30.89;23.49;100976.44;5318898;33;34719;-86
2022/05/20 11:07:01;;;;;;;2.60;1.85;;;;;;;30.60;23.81;100964.59;5317262;33;32551;-85
2022/05/20 11:10:40;;;;;;;1.65;1.37;;;;;;;31.92;23.33;100969.25;5325383;33;34264;-85
2022/05/20 11:14:00;;;;;;;2.03;1.60;;;;;;;32.08;23.88;100962.25;5319904;33;33748;-86
2022/05/20 11:17:31;;;;;;;1.08;1.08;;;;;;;32.02;22.91;100953.16;5320245;33;33804;-85
2022/05/20 11:21:05;;;;;;;1.67;1.58;;;;;;;30.90;23.94;100958.63;5323156;33;32057;-85
2022/05/20 11:24:33;;;;;;;1.48;1.30;;;;;;;30.89;24.27;100959.75;5318166;33;33035;-85
2022/05/20 11:28:07;;;;;;;2.08;1.85;;;;;;;32.41;22.99;100956.56;5310616;33;33506;-85
2022/05/20 11:31:32;;;;;;;1.70;1.60;;;;;;;33.61;22.26;100949.63;5312056;33;33464;-85
2022/05/20 11:34:41;;;;;;;2.75;2.15;;;;;;;35.30;20.57;100945.53;5319437;33;33323;-86
2022/05/20 11:37:59;;;;;;;1.35;1.25;;;;;;;35.71;19.48;100938.56;5305629;33;32625;-86
2022/05/20 11:41:31;;;;;;;2.20;1.58;;;;;;;36.58;19.02;100923.34;5318754;33;33553;-91
2022/05/20 11:44:46;;;;;;;1.48;1.12;;;;;;;37.55;17.25;100920.19;5303521;33;33686;-87
2022/05/20 11:48:25;;;;;;;1.58;1.45;;;;;;;37.50;18.07;100906.41;5319291;33;33609;-87
2022/05/20 11:51:31;;;;;;;1.30;1.20;;;;;;;38.40;16.73;100901.78;5319703;33;32671;-87
2022/05/20 11:54:47;;;;;;;1.95;1.75;;;;;;;38.26;17.17;100901.28;5302812;33;33735;-87
2022/05/20 11:58:05;;;;;;;1.92;1.30;;;;;;;37.83;17.36;100906.31;5317490;33;33112;-87
2022/05/20 12:01:09;;;;;;;1.50;1.40;;;;;;;38.23;17.66;100896.38;5305101;33;34401;-87
2022/05/20 12:04:14;;;;;;;1.40;1.30;;;;;;;38.28;16.81;100899.75;5306375;33;31594;-87
2022/05/20 12:07:23;;;;;;;1.17;1.08;;;;;;;38.95;18.15;100894.59;5303001;33;33254;-87
2022/05/20 12:10:32;;;;;;;2.12;1.65;;;;;;;38.77;16.38;100896.88;5312906;33;33123;-87
2022/05/20 12:13:57;;;;;;;1.92;1.33;;;;;;;39.08;16.50;100886.94;5304220;33;32933;-86
2022/05/20 12:17:04;;;;;;;1.50;1.40;;;;;;;39.82;15.69;100886.53;5303667;33;32393;-88
2022/05/20 12:24:12;;;;;;;1.30;1.20;;;;;;;39.86;15.87;100871.31;5311704;33;34360;-86
2022/05/20 12:27:21;;;;;;;1.42;1.33;;;;;;;40.33;15.22;100867.63;5307234;33;33058;-87
2022/05/20 12:30:35;;;;;;;1.58;1.48;;;;;;;40.63;15.85;100863.44;5319257;33;32333;-87
2022/05/20 12:33:56;;;;;;;1.92;1.37;;;;;;;40.84;15.64;100860.25;5305449;33;32969;-87
2022/05/20 12:36:59;;;;;;;1.60;1.50;;;;;;;41.40;14.22;100859.75;5318930;33;33384;-85
2022/05/20 12:40:02;;;;;;;2.67;1.40;;;;;;;41.41;14.43;100853.69;5320275;33;33404;-84
2022/05/20 12:43:10;;;;;;;1.35;1.25;;;;;;;40.78;14.55;100846.44;5312581;33;33165;-84
2022/05/20 12:46:23;;;;;;;2.67;1.40;;;;;;;41.48;14.13;100847.41;5340436;33;33679;-83
2022/05/20 12:49:32;;;;;;;1.55;1.45;;;;;;;40.55;14.84;100845.53;5320372;33;32119;-84
2022/05/20 12:52:49;;;;;;;1.10;1.10;;;;;;;40.83;14.97;100838.84;5311761;33;31814;-84
2022/05/20 12:55:53;;;;;;;1.60;1.50;;;;;;;40.77;15.00;100838.31;5325354;33;33855;-88
2022/05/20 12:59:17;;;;;;;1.58;1.48;;;;;;;40.93;15.93;100829.78;5325202;33;33021;-88
2022/05/20 13:02:21;;;;;;;1.30;1.17;;;;;;;41.38;15.30;100839.50;5325063;33;34294;-84
2022/05/20 13:05:34;;;;;;;2.35;1.23;;;;;;;41.23;15.25;100825.12;5308135;33;210715;-85
2022/05/20 13:08:48;;;;;;;1.73;1.62;;;;;;;42.14;14.29;100820.56;5328015;33;33620;-84
2022/05/20 13:11:51;;;;;;;2.15;1.50;;;;;;;42.31;14.34;100822.06;5330181;33;33466;-84
2022/05/20 13:15:05;;;;;;;1.50;1.40;;;;;;;42.55;13.71;100817.91;5327333;33;33624;-84
2022/05/20 13:18:20;;;;;;;1.62;1.52;;;;;;;42.94;13.43;100820.41;5327151;33;33160;-84
2022/05/20 13:21:25;;;;;;;1.45;1.30;;;;;;;42.62;14.43;100816.34;5311331;33;32183;-83
2022/05/20 13:24:30;;;;;;;2.03;1.55;;;;;;;42.88;13.57;100806.97;5309541;33;33188;-83
2022/05/20 13:27:33;;;;;;;2.77;1.37;;;;;;;41.75;14.28;100803.00;5323289;33;34130;-83
2022/05/20 13:30:36;;;;;;;1.48;1.37;;;;;;;41.99;14.12;100803.78;5312652;33;32317;-83
2022/05/20 13:33:42;;;;;;;2.53;1.50;;;;;;;41.03;14.87;100801.72;5310831;33;32431;-84
2022/05/20 13:36:49;;;;;;;1.40;1.23;;;;;;;41.70;15.26;100797.66;5308979;33;31963;-83
2022/05/20 13:39:57;;;;;;;1.48;1.37;;;;;;;41.59;15.05;100788.19;5310769;33;33420;-81
2022/05/20 13:43:01;;;;;;;1.35;1.25;;;;;;;41.96;14.93;100788.38;5323750;33;34246;-83
2022/05/20 13:49:33;;;;;;;2.67;1.65;;;;;;;42.09;14.37;100794.62;5327675;33;34673;-84
2022/05/20 13:52:37;;;;;;;2.45;1.33;;;;;;;43.16;13.95;100783.81;5325035;33;33549;-87
2022/05/20 13:55:40;;;;;;;1.50;1.40;;;;;;;42.16;14.63;100777.75;5324786;33;33545;-88
2022/05/20 13:58:44;;;;;;;1.60;1.50;;;;;;;41.86;14.80;100767.22;5324118;33;33029;-87
2022/05/20 14:02:02;;;;;;;1.58;1.48;;;;;;;41.87;14.78;100766.00;5312625;33;32519;-85
2022/05/20 14:05:19;;;;;;;1.02;0.93;;;;;;;41.17;15.21;100752.37;5325279;33;33931;-84
2022/05/20 14:08:23;;;;;;;1.75;1.25;;;;;;;40.22;16.05;100756.56;5312926;33;32743;-85
2022/05/20 14:11:39;;;;;;;5.95;1.37;;;;;;;37.61;19.13;100753.03;5326344;33;34045;-85
2022/05/20 14:14:46;;;;;;;1.60;1.17;;;;;;;35.89;20.93;100745.94;5312046;33;32011;-84
2022/05/20 14:17:49;;;;;;;2.45;1.65;;;;;;;34.73;22.21;100745.09;5312041;33;32994;-85
2022/05/20 14:21:02;;;;;;;1.37;1.30;;;;;;;33.96;22.60;100743.09;5313640;33;32216;-84
2022/05/20 14:24:22;;;;;;;2.78;1.48;;;;;;;33.07;23.52;100740.31;5312225;33;32652;-84
2022/05/20 14:27:50;;;;;;;2.28;1.70;;;;;;;32.30;25.33;100733.03;5311948;33;32324;-84
2022/05/20 14:30:57;;;;;;;2.42;1.62;;;;;;;31.73;25.60;100729.84;5313515;33;32172;-85
2022/05/20 14:34:08;;;;;;;2.23;1.83;;;;;;;31.66;26.43;100735.84;5314308;33;31455;-85
2022/05/20 14:37:14;;;;;;;2.95;1.70;;;;;;;31.52;25.95;100733.06;5314685;33;31788;-86
2022/05/20 14:40:17;;;;;;;1.75;1.58;;;;;;;31.37;27.28;100736.97;5327359;33;33502;-85
2022/05/20 14:43:37;;;;;;;1.95;1.70;;;;;;;31.22;27.63;100720.56;5314148;33;33171;-87
2022/05/20 14:50:13;;;;;;;1.52;1.42;;;;;;;30.78;28.10;100727.47;5313655;33;33676;-85
2022/05/20 14:53:26;;;;;;;1.33;1.23;;;;;;;30.53;28.36;100714.00;5327299;33;33437;-85
2022/05/20 14:56:41;;;;;;;1.73;1.60;;;;;;;30.48;28.32;100712.97;5328480;33;33064;-85
2022/05/20 14:59:44;;;;;;;1.85;1.75;;;;;;;30.39;28.56;100712.00;5328455;33;33560;-85
2022/05/20 15:02:48;;;;;;;1.90;1.80;;;;;;;30.23;28.71;100716.16;5327077;33;34147;-85
2022/05/20 15:05:52;;;;;;;1.40;1.30;;;;;;;30.25;28.78;100709.16;5332405;33;33381;-85
2022/05/20 15:08:56;;;;;;;2.25;1.70;;;;;;;30.06;28.68;100703.59;5323821;33;33532;-85
2022/05/20 15:11:59;;;;;;;2.05;1.80;;;;;;;29.88;29.00;100704.41;5330149;33;33456;-85
2022/05/20 15:15:02;;;;;;;2.50;1.65;;;;;;;29.84;28.86;100706.16;5318518;33;31949;-85
2022/05/20 15:18:08;;;;;;;2.00;1.70;;;;;;;29.84;29.09;100717.25;5314186;33;31884;-85
2022/05/20 15:21:19;;;;;;;1.98;1.75;;;;;;;29.63;29.95;100707.53;5327183;33;33759;-85
2022/05/20 15:24:31;;;;;;;1.90;1.73;;;;;;;29.45;29.99;100707.16;5313180;33;32695;-86
2022/05/20 15:27:35;;;;;;;1.25;1.15;;;;;;;29.42;30.45;100698.63;5326754;33;33836;-84
2022/05/20 15:30:37;;;;;;;2.03;1.92;;;;;;;29.29;30.06;100700.97;5313418;33;33503;-85
2022/05/20 15:37:06;;;;;;;1.58;1.48;;;;;;;29.06;31.46;100690.72;5330646;33;33933;-85
2022/05/20 15:40:15;;;;;;;1.70;1.60;;;;;;;28.99;31.05;100690.19;5327258;33;34780;-89
2022/05/20 15:43:18;;;;;;;2.03;1.60;;;;;;;28.85;32.20;100688.13;5325946;33;33644;-89
2022/05/20 15:46:21;;;;;;;1.37;1.25;;;;;;;28.81;30.79;100689.00;5313238;33;32085;-86
2022/05/20 15:49:28;;;;;;;2.15;1.00;;;;;;;28.69;30.83;100683.84;5313190;33;32050;-85
2022/05/20 15:52:41;;;;;;;1.35;1.25;;;;;;;28.61;31.02;100674.22;5326883;33;33165;-85
2022/05/20 15:55:47;;;;;;;2.35;1.70;;;;;;;28.67;31.07;100686.09;5313297;33;31962;-85
2022/05/20 15:58:59;;;;;;;1.52;1.42;;;;;;;28.57;31.79;100678.69;5328285;33;33311;-85
